Time;durP1;ratioP1;P1;durP2;ratioP2;P2;SDS_P1;SDS_P2;PMS_P1;PMS_P2;Temp;Humidity;BMP_temperature;BMP_pressure;BME280_temperature;BME280_humidity;BME280_pressure;Samples;Min_cycle;Max_cycle;Signal;HPM_P1;HPM_P2
2022/11/23 00:01:16;;;;;;;24.98;11.68;;;;;;;7.62;100.00;99392.59;5017651;28;20059;-68
2022/11/23 00:03:43;;;;;;;22.92;11.82;;;;;;;7.69;100.00;99395.25;5023055;28;20056;-66
2022/11/23 00:06:08;;;;;;;24.23;11.70;;;;;;;7.71;100.00;99403.97;5023705;28;20461;-68
2022/11/23 00:08:34;;;;;;;27.08;12.02;;;;;;;7.71;100.00;99396.13;5031144;28;20141;-68
2022/11/23 00:11:00;;;;;;;24.83;10.93;;;;;;;7.67;100.00;99401.34;5026663;28;20053;-67
2022/11/23 00:13:25;;;;;;;32.33;12.00;;;;;;;7.67;100.00;99404.81;5017723;28;20428;-69
2022/11/23 00:15:51;;;;;;;28.17;12.45;;;;;;;7.67;100.00;99412.69;5025712;28;20084;-67
2022/11/23 00:18:16;;;;;;;25.00;11.13;;;;;;;7.66;100.00;99417.91;5023376;28;20457;-68
2022/11/23 00:20:42;;;;;;;27.40;10.82;;;;;;;7.67;100.00;99420.53;5015466;28;20045;-68
2022/11/23 00:23:08;;;;;;;24.02;11.77;;;;;;;7.70;100.00;99412.69;5015161;28;20084;-67
2022/11/23 00:25:33;;;;;;;28.27;10.90;;;;;;;7.70;100.00;99412.69;5021340;28;20026;-68
2022/11/23 00:27:59;;;;;;;24.48;11.18;;;;;;;7.74;100.00;99405.72;5020573;28;20030;-69
2022/11/23 00:30:24;;;;;;;31.88;11.48;;;;;;;7.74;100.00;99410.97;5023996;28;20033;-66
2022/11/23 00:32:50;;;;;;;23.98;11.35;;;;;;;7.75;100.00;99410.97;5029098;28;20037;-68
2022/11/23 00:35:15;;;;;;;22.10;11.20;;;;;;;7.71;100.00;99416.19;5022274;28;20116;-68
2022/11/23 00:37:40;;;;;;;21.83;10.65;;;;;;;7.70;100.00;99423.16;5019190;28;20650;-68
2022/11/23 00:40:06;;;;;;;32.33;10.93;;;;;;;7.72;100.00;99416.19;5018013;28;20030;-67
2022/11/23 00:42:32;;;;;;;24.20;10.32;;;;;;;7.70;100.00;99424.91;5016630;28;20038;-68
2022/11/23 00:44:57;;;;;;;17.20;10.38;;;;;;;7.69;100.00;99425.78;5021888;28;20028;-67
2022/11/23 00:47:22;;;;;;;21.58;9.90;;;;;;;7.72;100.00;99431.91;5044656;28;20689;-66
2022/11/23 00:49:47;;;;;;;24.85;11.20;;;;;;;7.78;100.00;99436.28;5029413;28;20030;-69
2022/11/23 00:52:13;;;;;;;19.10;9.50;;;;;;;7.74;100.00;99432.78;5022718;28;20044;-68
2022/11/23 00:54:38;;;;;;;27.88;11.00;;;;;;;7.77;100.00;99421.44;5014845;28;20024;-68
2022/11/23 00:57:03;;;;;;;23.88;9.90;;;;;;;7.81;100.00;99424.97;5020185;28;20029;-67
2022/11/23 00:59:28;;;;;;;14.68;9.35;;;;;;;7.82;100.00;99431.97;5020502;28;20108;-67
2022/11/23 01:01:54;;;;;;;19.73;10.00;;;;;;;7.81;100.00;99427.59;5018816;28;20327;-66
2022/11/23 01:04:19;;;;;;;22.80;10.73;;;;;;;7.81;100.00;99432.81;5020835;28;20045;-67
2022/11/23 01:06:45;;;;;;;24.67;10.65;;;;;;;7.81;100.00;99424.97;5025924;28;20521;-67
2022/11/23 01:09:20;;;;;;;28.42;10.65;;;;;;;7.80;100.00;99428.44;5016863;28;20032;-67
2022/11/23 01:11:45;;;;;;;21.02;9.85;;;;;;;7.77;100.00;99424.06;5031060;28;20037;-69
2022/11/23 01:14:11;;;;;;;21.73;10.80;;;;;;;7.76;100.00;99433.69;5023941;28;20175;-68
2022/11/23 01:16:39;;;;;;;20.27;11.50;;;;;;;7.78;100.00;99435.44;5020293;28;20030;-67
2022/11/23 01:19:07;;;;;;;21.52;11.13;;;;;;;7.74;100.00;99440.63;5020428;28;20136;-67
2022/11/23 01:21:34;;;;;;;30.80;12.07;;;;;;;7.73;100.00;99436.28;5019885;28;20041;-67
2022/11/23 01:23:59;;;;;;;18.42;11.00;;;;;;;7.74;100.00;99434.53;5019322;28;20390;-68
2022/11/23 01:26:25;;;;;;;20.45;11.10;;;;;;;7.73;100.00;99436.28;5033985;28;20021;-69
2022/11/23 01:28:50;;;;;;;25.45;12.07;;;;;;;7.76;100.00;99438.91;5031889;28;20052;-67
2022/11/23 01:31:22;;;;;;;25.05;11.15;;;;;;;7.78;100.00;99438.06;5024246;28;20029;-68
2022/11/23 01:33:52;;;;;;;27.17;11.63;;;;;;;7.74;100.00;99440.63;5014004;28;20028;-68
2022/11/23 01:36:20;;;;;;;36.30;12.70;;;;;;;7.73;100.00;99438.91;5020992;28;20422;-68
2022/11/23 01:38:46;;;;;;;23.35;12.27;;;;;;;7.75;100.00;99439.78;5026022;28;20029;-68
2022/11/23 01:41:16;;;;;;;24.23;12.75;;;;;;;7.76;100.00;99444.16;5017258;28;20025;-65
2022/11/23 01:43:42;;;;;;;24.30;12.48;;;;;;;7.77;100.00;99445.00;5016061;28;20066;-68
2022/11/23 01:46:08;;;;;;;25.05;12.40;;;;;;;7.80;100.00;99452.00;5017760;28;20021;-67
2022/11/23 01:48:56;;;;;;;28.48;11.85;;;;;;;7.78;100.00;99448.53;5026625;28;20811;-68
2022/11/23 01:51:29;;;;;;;26.33;12.80;;;;;;;7.79;100.00;99447.66;5028762;28;20029;-67
2022/11/23 01:54:01;;;;;;;26.60;11.88;;;;;;;7.79;100.00;99450.28;5018327;28;20420;-69
2022/11/23 01:56:33;;;;;;;21.73;10.93;;;;;;;7.78;100.00;99445.91;5032477;28;20025;-68
2022/11/23 01:59:01;;;;;;;27.67;10.98;;;;;;;7.73;100.00;99445.88;5020348;28;20076;-67
2022/11/23 02:01:27;;;;;;;22.42;10.50;;;;;;;7.78;100.00;99445.91;5026011;28;20438;-69
2022/11/23 02:03:55;;;;;;;22.95;9.52;;;;;;;7.74;100.00;99448.50;5012944;28;20132;-69
2022/11/23 02:06:22;;;;;;;24.75;9.18;;;;;;;7.77;100.00;99450.25;5026823;28;20033;-68
2022/11/23 02:08:49;;;;;;;23.33;9.45;;;;;;;7.80;100.00;99455.53;5016260;28;20029;-67
2022/11/23 02:11:15;;;;;;;21.70;8.88;;;;;;;7.78;100.00;99457.25;5021702;28;20025;-68
2022/11/23 02:13:43;;;;;;;17.35;7.80;;;;;;;7.83;100.00;99460.78;5021952;28;20075;-68
2022/11/23 02:16:09;;;;;;;26.83;7.97;;;;;;;7.79;100.00;99459.00;5015370;28;20041;-68
2022/11/23 02:18:36;;;;;;;19.15;8.52;;;;;;;7.81;100.00;99465.13;5013903;28;20053;-68
2022/11/23 02:21:02;;;;;;;16.02;7.07;;;;;;;7.78;100.00;99461.63;5015884;28;20022;-70
2022/11/23 02:23:40;;;;;;;19.70;7.68;;;;;;;7.76;100.00;99470.34;5023791;28;20032;-68
2022/11/23 02:26:11;;;;;;;15.40;7.35;;;;;;;7.76;100.00;99466.84;5020716;28;20021;-68
2022/11/23 02:28:42;;;;;;;19.15;7.35;;;;;;;7.79;100.00;99463.38;5014693;28;20385;-67
2022/11/23 02:31:08;;;;;;;16.65;7.72;;;;;;;7.75;100.00;99458.09;5016080;28;20025;-67
2022/11/23 02:33:37;;;;;;;29.52;7.43;;;;;;;7.73;100.00;99469.44;5013825;28;20556;-69
2022/11/23 02:36:40;;;;;;;22.27;7.57;;;;;;;7.73;100.00;99462.47;5014454;28;20045;-67
2022/11/23 02:39:43;;;;;;;22.10;7.10;;;;;;;7.71;100.00;99472.03;5023058;28;20037;-69
2022/11/23 02:42:09;;;;;;;19.90;8.02;;;;;;;7.67;100.00;99470.28;4989422;28;20113;-67
2022/11/23 02:44:43;;;;;;;19.73;8.10;;;;;;;7.65;100.00;99466.78;5013572;28;20448;-67
2022/11/23 02:47:09;;;;;;;22.02;7.50;;;;;;;7.63;100.00;99458.03;5017382;28;20038;-68
2022/11/23 02:49:35;;;;;;;19.00;8.25;;;;;;;7.65;100.00;99463.28;5018058;28;20025;-69
2022/11/23 02:52:02;;;;;;;19.00;8.52;;;;;;;7.57;100.00;99461.50;5021882;28;20120;-68
2022/11/23 02:54:27;;;;;;;21.55;9.95;;;;;;;7.52;100.00;99467.56;5023074;28;20033;-67
2022/11/23 02:56:52;;;;;;;19.85;8.57;;;;;;;7.46;100.00;99465.78;5021058;28;20022;-67
2022/11/23 02:59:18;;;;;;;21.30;9.82;;;;;;;7.48;100.00;99471.03;5014345;28;20124;-69
2022/11/23 03:01:43;;;;;;;18.60;9.52;;;;;;;7.45;100.00;99477.13;5016040;28;20099;-68
2022/11/23 03:04:09;;;;;;;27.23;9.35;;;;;;;7.47;100.00;99477.13;5015000;28;20026;-69
2022/11/23 03:06:34;;;;;;;20.02;8.90;;;;;;;7.43;100.00;99469.25;5014784;28;20018;-67
2022/11/23 03:09:00;;;;;;;16.65;8.65;;;;;;;7.48;100.00;99473.66;5015861;28;20033;-67
2022/11/23 03:11:25;;;;;;;24.05;8.82;;;;;;;7.46;100.00;99477.97;5012660;28;20029;-69
2022/11/23 03:13:50;;;;;;;19.58;10.70;;;;;;;7.43;100.00;99466.66;5012937;28;20098;-67
2022/11/23 03:16:16;;;;;;;20.42;10.85;;;;;;;7.45;100.00;99463.13;5012560;28;21478;-66
2022/11/23 03:18:41;;;;;;;20.48;10.30;;;;;;;7.53;100.00;99469.34;5014006;28;20425;-68
2022/11/23 03:21:10;;;;;;;19.30;10.70;;;;;;;7.52;100.00;99471.06;5023344;28;20583;-68
2022/11/23 03:23:35;;;;;;;18.67;11.10;;;;;;;7.54;100.00;99468.44;5022653;28;20101;-68
2022/11/23 03:26:02;;;;;;;18.38;10.77;;;;;;;7.54;100.00;99473.69;5015426;28;20174;-67
2022/11/23 03:28:28;;;;;;;18.27;10.45;;;;;;;7.58;100.00;99475.44;5017317;28;20401;-67
2022/11/23 03:30:53;;;;;;;26.13;11.13;;;;;;;7.58;100.00;99475.44;5021767;28;20104;-68
2022/11/23 03:33:19;;;;;;;17.48;10.65;;;;;;;7.59;100.00;99479.81;5012761;28;20030;-67
2022/11/23 03:35:45;;;;;;;18.80;10.32;;;;;;;7.62;100.00;99482.47;5017704;28;20025;-69
2022/11/23 03:38:10;;;;;;;18.38;10.88;;;;;;;7.62;100.00;99482.47;5019579;28;20481;-68
2022/11/23 03:40:36;;;;;;;15.73;10.75;;;;;;;7.67;100.00;99477.25;5015130;28;20080;-67
2022/11/23 03:43:01;;;;;;;20.23;11.10;;;;;;;7.70;100.00;99474.66;5012777;28;20080;-67
2022/11/23 03:45:26;;;;;;;18.83;11.52;;;;;;;7.74;100.00;99482.53;5027053;28;20025;-67
2022/11/23 03:47:52;;;;;;;27.40;12.00;;;;;;;7.71;100.00;99482.53;5022383;28;20041;-68
2022/11/23 03:50:17;;;;;;;18.75;10.25;;;;;;;7.73;100.00;99479.91;5023822;28;20038;-67
2022/11/23 03:52:42;;;;;;;18.98;11.25;;;;;;;7.72;100.00;99484.28;5027598;28;20459;-67
2022/11/23 03:55:08;;;;;;;15.55;10.43;;;;;;;7.75;100.00;99479.06;5012222;28;20025;-68
2022/11/23 03:57:33;;;;;;;19.00;10.20;;;;;;;7.79;100.00;99484.34;5017730;28;20017;-68
2022/11/23 03:59:59;;;;;;;22.83;10.13;;;;;;;7.80;100.00;99473.84;5011932;28;20049;-66
2022/11/23 04:02:25;;;;;;;20.60;9.23;;;;;;;7.83;100.00;99486.09;5013801;28;20420;-66
2022/11/23 04:04:50;;;;;;;15.63;9.73;;;;;;;7.83;100.00;99481.72;5016192;28;20041;-67
2022/11/23 04:07:16;;;;;;;14.13;8.63;;;;;;;7.82;100.00;99484.34;5025513;28;20017;-68
2022/11/23 04:09:41;;;;;;;11.88;7.57;;;;;;;7.81;100.00;99483.44;5012229;28;20645;-68
2022/11/23 04:12:08;;;;;;;19.25;8.60;;;;;;;7.84;100.00;99487.81;5012428;28;20056;-68
2022/11/23 04:14:33;;;;;;;13.02;7.32;;;;;;;7.86;100.00;99483.50;5015700;28;20033;-68
2022/11/23 04:16:58;;;;;;;15.57;7.68;;;;;;;7.84;100.00;99479.97;5021674;28;20026;-66
2022/11/23 04:19:24;;;;;;;10.27;6.72;;;;;;;7.86;100.00;99488.72;5018025;28;20022;-69
2022/11/23 04:21:49;;;;;;;16.50;7.50;;;;;;;7.84;100.00;99483.47;5013730;28;20060;-68
2022/11/23 04:24:14;;;;;;;13.20;7.50;;;;;;;7.91;100.00;99485.25;5011643;28;20164;-68
2022/11/23 04:26:40;;;;;;;15.93;7.03;;;;;;;7.95;100.00;99491.41;5013897;28;20022;-67
2022/11/23 04:29:05;;;;;;;16.75;6.97;;;;;;;7.90;100.00;99480.88;5012179;28;20030;-67
2022/11/23 04:31:31;;;;;;;8.98;7.03;;;;;;;7.99;100.00;99482.69;5023895;28;20037;-68
2022/11/23 04:33:57;;;;;;;17.67;6.88;;;;;;;8.00;100.00;99484.41;5011766;28;20061;-67
2022/11/23 04:36:22;;;;;;;13.68;7.30;;;;;;;8.01;100.00;99483.56;5016734;28;20061;-68
2022/11/23 04:38:48;;;;;;;13.52;6.80;;;;;;;8.00;100.00;99491.41;5012893;28;20029;-67
2022/11/23 04:41:13;;;;;;;12.68;6.93;;;;;;;7.99;100.00;99476.56;5017197;28;20034;-68
2022/11/23 04:43:38;;;;;;;15.05;6.78;;;;;;;8.00;100.00;99494.91;5011737;28;20129;-68
2022/11/23 04:46:04;;;;;;;15.98;7.32;;;;;;;8.03;100.00;99479.22;5011839;28;20025;-67
2022/11/23 04:48:30;;;;;;;13.02;6.95;;;;;;;8.01;100.00;99480.06;5013839;28;20113;-67
2022/11/23 04:50:56;;;;;;;16.15;9.25;;;;;;;8.00;100.00;99476.56;5014086;28;20053;-67
2022/11/23 04:53:21;;;;;;;13.88;7.75;;;;;;;7.99;100.00;99479.19;5019343;28;20448;-68
2022/11/23 04:55:47;;;;;;;14.98;7.82;;;;;;;8.04;100.00;99480.94;5021924;28;20032;-67
2022/11/23 04:58:12;;;;;;;11.27;7.72;;;;;;;7.99;100.00;99477.44;5033171;28;20370;-68
2022/11/23 05:00:37;;;;;;;12.25;7.68;;;;;;;7.98;100.00;99474.81;5026671;28;20389;-67
2022/11/23 05:03:03;;;;;;;15.75;6.80;;;;;;;8.05;100.00;99477.47;5025482;28;20026;-67
2022/11/23 05:05:28;;;;;;;12.63;7.32;;;;;;;8.05;100.00;99481.84;5020965;28;20052;-67
2022/11/23 05:07:54;;;;;;;16.70;6.20;;;;;;;8.04;100.00;99482.69;5019618;28;20029;-69
2022/11/23 05:10:19;;;;;;;15.45;6.10;;;;;;;7.97;100.00;99489.66;5016354;28;20769;-68
2022/11/23 05:12:44;;;;;;;18.33;6.20;;;;;;;8.00;100.00;99489.66;5023871;28;20129;-68
2022/11/23 05:15:12;;;;;;;11.05;5.85;;;;;;;8.04;100.00;99495.78;5027912;28;20046;-68
2022/11/23 05:17:37;;;;;;;18.27;6.10;;;;;;;8.00;100.00;99488.78;5022452;28;20496;-67
2022/11/23 05:20:03;;;;;;;13.85;5.60;;;;;;;7.98;100.00;99485.31;5023520;28;20017;-67
2022/11/23 05:22:28;;;;;;;15.07;6.10;;;;;;;8.05;100.00;99489.69;5025055;28;20441;-67
2022/11/23 05:24:53;;;;;;;13.02;5.40;;;;;;;7.97;100.00;99488.78;5020053;28;20018;-67
2022/11/23 05:27:19;;;;;;;10.95;5.20;;;;;;;7.96;100.00;99497.50;5027556;28;20053;-67
2022/11/23 05:29:44;;;;;;;12.40;5.35;;;;;;;7.95;100.00;99496.63;5015208;28;20060;-68
2022/11/23 05:32:09;;;;;;;12.13;5.30;;;;;;;7.94;100.00;99489.63;5017696;28;20030;-68
2022/11/23 05:34:35;;;;;;;13.43;4.47;;;;;;;7.89;100.00;99499.22;5030788;28;20032;-68
2022/11/23 05:37:00;;;;;;;15.13;5.93;;;;;;;7.84;100.00;99498.31;5014747;28;20033;-68
2022/11/23 05:39:25;;;;;;;15.65;5.80;;;;;;;7.85;100.00;99500.06;5014792;28;20088;-68
2022/11/23 05:41:51;;;;;;;12.00;5.20;;;;;;;7.86;100.00;99496.59;5018188;28;20372;-69
2022/11/23 05:44:16;;;;;;;16.58;5.93;;;;;;;7.79;100.00;99494.81;5014579;28;20034;-68
2022/11/23 05:46:41;;;;;;;16.58;6.00;;;;;;;7.75;100.00;99493.91;5028154;28;20030;-68
2022/11/23 05:49:08;;;;;;;14.93;6.13;;;;;;;7.80;100.00;99501.75;5015761;28;20034;-68
2022/11/23 05:51:34;;;;;;;18.10;5.78;;;;;;;7.75;100.00;99500.00;5027653;28;20038;-67
2022/11/23 05:54:01;;;;;;;15.32;6.05;;;;;;;7.75;100.00;99500.00;5014719;28;20033;-69
2022/11/23 05:56:26;;;;;;;20.95;6.95;;;;;;;7.69;100.00;99505.22;5014754;28;20394;-66
2022/11/23 05:58:54;;;;;;;20.38;6.78;;;;;;;7.73;100.00;99493.00;5017454;28;20053;-68
2022/11/23 06:01:19;;;;;;;14.00;7.05;;;;;;;7.71;100.00;99492.13;5020987;28;20029;-67
2022/11/23 06:03:44;;;;;;;21.65;7.35;;;;;;;7.73;100.00;99503.47;5019646;28;20034;-69
2022/11/23 06:06:10;;;;;;;20.70;7.80;;;;;;;7.71;100.00;99486.88;5021188;28;20024;-69
2022/11/23 06:08:35;;;;;;;17.95;7.32;;;;;;;7.73;100.00;99491.28;5029998;28;20469;-68
2022/11/23 06:11:01;;;;;;;21.23;8.13;;;;;;;7.73;100.00;99487.75;5021159;28;20026;-69
2022/11/23 06:13:26;;;;;;;23.23;7.43;;;;;;;7.66;100.00;99492.06;5032589;28;20022;-67
2022/11/23 06:15:52;;;;;;;19.23;7.85;;;;;;;7.66;100.00;99479.00;5020359;28;20034;-68
2022/11/23 06:18:17;;;;;;;21.27;7.43;;;;;;;7.67;100.00;99496.47;5017671;28;20363;-66
2022/11/23 06:20:42;;;;;;;17.45;6.70;;;;;;;7.65;100.00;99489.47;5029038;28;20040;-67
2022/11/23 06:23:07;;;;;;;14.27;4.95;;;;;;;7.66;100.00;99491.22;5014363;28;20049;-67
2022/11/23 06:25:33;;;;;;;14.55;5.07;;;;;;;7.62;100.00;99487.69;5015794;28;20063;-68
2022/11/23 06:27:59;;;;;;;14.30;4.88;;;;;;;7.63;100.00;99489.44;5021277;28;20532;-68
2022/11/23 06:30:27;;;;;;;21.08;4.80;;;;;;;7.57;100.00;99492.91;5026578;28;20064;-67
2022/11/23 06:32:52;;;;;;;21.55;5.55;;;;;;;7.55;100.00;99489.38;5020851;28;20029;-68
2022/11/23 06:35:18;;;;;;;18.58;4.80;;;;;;;7.53;100.00;99487.66;5030545;28;20797;-69
2022/11/23 06:37:44;;;;;;;14.93;5.18;;;;;;;7.49;100.00;99491.97;5026033;28;20091;-68
2022/11/23 06:40:10;;;;;;;14.48;4.72;;;;;;;7.40;100.00;99490.16;5015569;28;20490;-68
2022/11/23 06:42:36;;;;;;;21.83;5.20;;;;;;;7.37;100.00;99489.28;5012845;28;20037;-68
2022/11/23 06:45:01;;;;;;;14.07;4.88;;;;;;;7.31;100.00;99482.25;5027208;28;20026;-68
2022/11/23 06:47:27;;;;;;;16.65;4.72;;;;;;;7.28;100.00;99490.06;5026688;28;20079;-68
2022/11/23 06:49:53;;;;;;;14.98;4.55;;;;;;;7.25;100.00;99498.75;5025454;28;20029;-68
2022/11/23 06:52:18;;;;;;;12.15;4.00;;;;;;;7.16;100.00;99501.31;5030511;28;20473;-68
2022/11/23 06:54:43;;;;;;;19.05;4.10;;;;;;;7.13;100.00;99495.19;5025085;28;20033;-69
2022/11/23 06:57:09;;;;;;;19.42;4.18;;;;;;;7.07;100.00;99509.09;5017031;28;20029;-66
2022/11/23 06:59:34;;;;;;;14.20;4.22;;;;;;;7.00;100.00;99508.16;5022601;28;20071;-67
2022/11/23 07:02:00;;;;;;;21.63;4.80;;;;;;;7.03;100.00;99515.16;5017756;28;20034;-67
2022/11/23 07:04:25;;;;;;;17.67;3.90;;;;;;;7.02;100.00;99522.09;5016045;28;20057;-68
2022/11/23 07:06:50;;;;;;;14.25;4.22;;;;;;;7.00;100.00;99523.84;5021325;28;20036;-68
2022/11/23 07:09:16;;;;;;;15.80;3.15;;;;;;;7.01;100.00;99523.00;5026683;28;20029;-68
2022/11/23 07:11:41;;;;;;;15.18;2.78;;;;;;;7.02;100.00;99529.94;5030627;28;20104;-69
2022/11/23 07:14:06;;;;;;;19.15;2.85;;;;;;;7.05;100.00;99531.72;5013048;28;20029;-68
2022/11/23 07:16:31;;;;;;;7.30;2.42;;;;;;;7.07;100.00;99528.25;5014602;28;20463;-67
2022/11/23 07:18:57;;;;;;;21.38;2.72;;;;;;;7.08;100.00;99519.56;5015645;28;20120;-67
2022/11/23 07:21:22;;;;;;;10.93;2.10;;;;;;;7.18;100.00;99537.97;5014516;28;20037;-68
2022/11/23 07:23:48;;;;;;;21.05;2.90;;;;;;;7.22;100.00;99539.75;5026046;28;20037;-68
2022/11/23 07:26:13;;;;;;;9.10;2.45;;;;;;;7.26;100.00;99537.16;5019344;28;20040;-69
2022/11/23 07:28:38;;;;;;;27.55;2.90;;;;;;;7.28;100.00;99538.91;5020246;28;20025;-67
2022/11/23 07:31:04;;;;;;;16.35;2.65;;;;;;;7.26;100.00;99542.38;5030882;28;20057;-68
2022/11/23 07:33:29;;;;;;;16.77;2.70;;;;;;;7.35;100.00;99541.59;5029561;28;20025;-68
2022/11/23 07:35:55;;;;;;;17.33;2.38;;;;;;;7.32;100.00;99540.69;5018926;28;20021;-69
2022/11/23 07:38:21;;;;;;;32.30;3.25;;;;;;;7.36;100.00;99545.94;5026716;28;20033;-68
2022/11/23 07:40:49;;;;;;;18.27;3.20;;;;;;;7.37;100.00;99544.22;5023676;28;20036;-67
2022/11/23 07:43:14;;;;;;;14.27;3.58;;;;;;;7.39;100.00;99551.25;5032432;28;20453;-68
2022/11/23 07:45:39;;;;;;;15.07;2.15;;;;;;;7.43;100.00;99552.13;5036912;28;20028;-69
2022/11/23 07:48:07;;;;;;;16.90;2.70;;;;;;;7.47;100.00;99558.25;5040556;28;20021;-68
2022/11/23 07:50:35;;;;;;;15.07;3.20;;;;;;;7.51;100.00;99562.66;5037562;28;20346;-69
2022/11/23 07:53:02;;;;;;;10.90;2.22;;;;;;;7.62;100.00;99567.97;5036858;28;20032;-68
2022/11/23 07:55:27;;;;;;;18.92;2.67;;;;;;;7.67;100.00;99574.13;5036164;28;20037;-68
2022/11/23 07:57:53;;;;;;;12.50;1.92;;;;;;;7.68;100.00;99570.66;5035826;28;20036;-68
2022/11/23 08:00:20;;;;;;;11.27;2.50;;;;;;;7.72;100.00;99568.06;5034908;28;20083;-69
2022/11/23 08:02:45;;;;;;;16.42;2.90;;;;;;;7.69;100.00;99568.06;5028377;28;20112;-67
2022/11/23 08:05:12;;;;;;;14.60;2.10;;;;;;;7.74;100.00;99566.31;5036559;28;20116;-68
2022/11/23 08:07:37;;;;;;;16.65;3.22;;;;;;;7.76;100.00;99568.97;5036294;28;20672;-67
2022/11/23 08:10:03;;;;;;;13.27;2.03;;;;;;;7.81;100.00;99555.91;5038518;28;20029;-67
2022/11/23 08:12:28;;;;;;;15.63;2.28;;;;;;;7.80;100.00;99562.91;5036891;28;20035;-66
2022/11/23 08:14:53;;;;;;;10.77;2.40;;;;;;;7.78;100.00;99577.72;5035687;28;20542;-67
2022/11/23 08:17:19;;;;;;;15.10;3.03;;;;;;;7.79;100.00;99566.38;5039073;28;20032;-67
2022/11/23 08:19:45;;;;;;;9.98;2.40;;;;;;;7.78;100.00;99587.31;5034232;28;20029;-69
2022/11/23 08:22:10;;;;;;;14.35;2.75;;;;;;;7.75;100.00;99578.56;5032959;28;20032;-67
2022/11/23 08:24:36;;;;;;;15.13;2.85;;;;;;;7.84;100.00;99571.63;5040075;28;20075;-67
2022/11/23 08:27:01;;;;;;;18.17;2.80;;;;;;;7.85;100.00;99570.78;5028427;28;20474;-68
2022/11/23 08:29:26;;;;;;;15.13;2.25;;;;;;;7.84;100.00;99571.63;5023233;28;20033;-68
2022/11/23 08:31:52;;;;;;;11.95;2.20;;;;;;;7.82;100.00;99576.00;5037275;28;20029;-67
2022/11/23 08:34:18;;;;;;;12.57;2.20;;;;;;;7.80;100.00;99575.09;5038721;28;20104;-68
2022/11/23 08:36:44;;;;;;;14.13;2.45;;;;;;;7.80;100.00;99580.34;5025246;28;20030;-68
2022/11/23 08:39:10;;;;;;;12.02;2.10;;;;;;;7.84;100.00;99577.75;5032829;28;20036;-68
2022/11/23 08:41:37;;;;;;;19.42;2.28;;;;;;;7.88;100.00;99565.53;5031644;28;20030;-69
2022/11/23 08:44:02;;;;;;;8.88;2.72;;;;;;;7.87;100.00;99563.81;5036127;28;20072;-68
2022/11/23 08:46:28;;;;;;;18.52;2.78;;;;;;;7.87;100.00;99561.19;5043068;28;20026;-70
2022/11/23 08:48:53;;;;;;;16.25;2.90;;;;;;;7.92;100.00;99569.94;5037167;28;20021;-69
2022/11/23 08:51:21;;;;;;;17.35;2.92;;;;;;;8.00;100.00;99563.00;5045971;28;20025;-67
2022/11/23 08:53:49;;;;;;;14.20;2.30;;;;;;;8.09;100.00;99563.06;5035150;28;20029;-68
2022/11/23 08:56:15;;;;;;;19.15;2.47;;;;;;;8.13;100.00;99558.72;5035753;28;20028;-67
2022/11/23 08:58:48;;;;;;;16.67;3.05;;;;;;;8.19;100.00;99563.13;5025316;28;20385;-68
2022/11/23 09:01:15;;;;;;;11.27;2.57;;;;;;;8.31;100.00;99551.84;5026158;28;20025;-68
2022/11/23 09:03:41;;;;;;;16.33;2.90;;;;;;;8.42;100.00;99545.78;5029592;28;20026;-68
2022/11/23 09:06:10;;;;;;;18.33;3.05;;;;;;;8.44;100.00;99532.69;5026863;28;20071;-68
2022/11/23 09:08:37;;;;;;;16.45;3.38;;;;;;;8.51;100.00;99528.38;5036750;28;20438;-68
2022/11/23 09:11:10;;;;;;;15.25;2.60;;;;;;;8.59;100.00;99527.50;5032045;28;20114;-68
2022/11/23 09:13:37;;;;;;;13.63;2.75;;;;;;;8.70;100.00;99535.41;5030290;28;20033;-68
2022/11/23 09:16:03;;;;;;;9.93;2.22;;;;;;;8.73;100.00;99519.69;5048564;28;20385;-67
2022/11/23 09:18:30;;;;;;;20.08;2.70;;;;;;;8.70;100.00;99510.94;5027518;28;20068;-66
2022/11/23 09:20:56;;;;;;;19.95;3.00;;;;;;;8.77;100.00;99497.81;5025725;28;20112;-69
2022/11/23 09:23:22;;;;;;;10.18;2.30;;;;;;;8.89;100.00;99493.50;5025081;28;20113;-68
2022/11/23 09:25:49;;;;;;;10.00;2.22;;;;;;;9.01;100.00;99497.91;5029776;28;20381;-68
2022/11/23 09:28:15;;;;;;;8.45;2.35;;;;;;;9.17;100.00;99485.63;5029417;28;20078;-67
2022/11/23 09:30:41;;;;;;;14.27;3.63;;;;;;;9.27;100.00;99490.03;5040458;28;20030;-67
2022/11/23 09:33:07;;;;;;;17.17;2.63;;;;;;;9.42;100.00;99474.25;5041743;28;20022;-67
2022/11/23 09:35:38;;;;;;;14.73;2.13;;;;;;;9.45;100.00;99479.53;5036958;28;20022;-68
2022/11/23 09:38:03;;;;;;;14.18;2.92;;;;;;;9.63;100.00;99483.00;5041609;28;20048;-68
2022/11/23 09:40:53;;;;;;;11.13;1.88;;;;;;;9.75;100.00;99482.97;5031944;28;20025;-69
2022/11/23 09:43:33;;;;;;;16.52;3.17;;;;;;;9.74;100.00;99481.22;5018818;28;20022;-68
2022/11/23 09:46:20;;;;;;;14.15;2.47;;;;;;;9.66;100.00;99476.84;5023776;28;20025;-69
2022/11/23 09:49:03;;;;;;;14.82;2.10;;;;;;;9.71;100.00;99486.50;5028822;28;20104;-69
2022/11/23 09:51:28;;;;;;;17.67;2.65;;;;;;;9.74;100.00;99482.97;5031956;28;20029;-68
2022/11/23 09:54:13;;;;;;;14.23;2.42;;;;;;;9.92;100.00;99489.94;5038776;28;20017;-67
2022/11/23 09:56:45;;;;;;;11.88;2.35;;;;;;;10.12;100.00;99495.16;5036255;28;20048;-67
2022/11/23 09:59:26;;;;;;;18.35;2.72;;;;;;;10.37;100.00;99497.69;5041951;28;20048;-68
2022/11/23 10:01:58;;;;;;;10.18;1.80;;;;;;;10.50;100.00;99509.03;5028705;28;20037;-68
2022/11/23 10:04:24;;;;;;;18.25;2.45;;;;;;;10.67;100.00;99515.06;5022622;28;20132;-67
2022/11/23 10:06:56;;;;;;;14.18;2.40;;;;;;;10.72;100.00;99513.31;5037057;28;20025;-69
2022/11/23 10:09:37;;;;;;;12.82;2.58;;;;;;;10.82;100.00;99511.47;5033043;28;20033;-68
2022/11/23 10:12:20;;;;;;;8.48;2.13;;;;;;;11.07;100.00;99512.22;5021306;28;20033;-69
2022/11/23 10:15:23;;;;;;;16.00;2.92;;;;;;;10.87;100.00;99514.09;5032059;28;20033;-68
2022/11/23 10:18:29;;;;;;;16.95;2.35;;;;;;;11.01;100.00;99521.91;5017458;28;20092;-69
2022/11/23 10:21:23;;;;;;;13.93;2.47;;;;;;;10.69;100.00;99509.81;5025783;28;20030;-68
2022/11/23 10:24:04;;;;;;;16.73;2.80;;;;;;;10.38;100.00;99508.22;5020225;28;20378;-68
2022/11/23 10:26:38;;;;;;;13.65;2.72;;;;;;;10.30;100.00;99534.50;5027534;28;20037;-69
2022/11/23 10:29:30;;;;;;;11.43;2.38;;;;;;;9.71;100.00;99518.00;5024998;28;20469;-67
2022/11/23 10:31:57;;;;;;;16.30;3.35;;;;;;;9.33;100.00;99518.88;5018368;28;20473;-68
2022/11/23 10:34:38;;;;;;;14.85;2.85;;;;;;;9.11;100.00;99521.53;5026905;28;20025;-68
2022/11/23 10:37:12;;;;;;;14.18;2.70;;;;;;;8.75;100.00;99525.81;5018042;28;20030;-68
2022/11/23 10:39:37;;;;;;;;;;;;;;;8.70;100.00;99514.44;5018524;28;20024;-68
2022/11/23 10:42:16;;;;;;;14.00;3.47;;;;;;;8.51;100.00;99512.63;5022361;28;19913;-69
2022/11/23 10:44:45;;;;;;;10.60;3.00;;;;;;;8.42;100.00;99513.44;5017674;28;20296;-69
2022/11/23 10:47:36;;;;;;;11.25;3.20;;;;;;;8.61;100.00;99498.66;5034504;28;20074;-69
2022/11/23 10:50:19;;;;;;;13.75;3.25;;;;;;;8.53;100.00;99495.16;5035604;28;20531;-68
2022/11/23 10:53:04;;;;;;;9.67;3.30;;;;;;;8.71;100.00;99510.94;5023638;28;20029;-68
2022/11/23 10:55:51;;;;;;;10.25;2.72;;;;;;;8.93;100.00;99493.50;5019231;28;20040;-69
2022/11/23 10:58:33;;;;;;;8.85;2.90;;;;;;;8.99;100.00;99490.00;5035286;28;20381;-68
2022/11/23 11:01:29;;;;;;;8.98;3.20;;;;;;;9.02;100.00;99478.63;5034677;28;20029;-69
2022/11/23 11:04:05;;;;;;;10.85;3.13;;;;;;;8.98;100.00;99477.78;5021278;28;20065;-67
2022/11/23 11:06:33;;;;;;;9.20;3.10;;;;;;;9.04;100.00;99463.78;5030338;28;20021;-68
2022/11/23 11:09:04;;;;;;;13.48;2.92;;;;;;;9.20;100.00;99467.28;5036042;28;20087;-68
2022/11/23 11:11:38;;;;;;;14.88;3.08;;;;;;;9.45;100.00;99450.66;5024231;28;20036;-68
2022/11/23 11:14:18;;;;;;;17.48;3.63;;;;;;;9.68;100.00;99449.69;5032675;28;20109;-68
2022/11/23 11:16:52;;;;;;;11.63;2.60;;;;;;;9.84;100.00;99440.03;5040097;28;20108;-68
2022/11/23 11:19:27;;;;;;;11.05;3.50;;;;;;;9.91;100.00;99441.75;5019466;28;20061;-67
2022/11/23 11:21:53;;;;;;;8.30;2.63;;;;;;;10.11;100.00;99439.06;5039944;28;20029;-68
2022/11/23 11:24:36;;;;;;;14.55;3.22;;;;;;;10.26;100.00;99442.50;5026892;28;20040;-67
2022/11/23 11:27:12;;;;;;;16.23;2.60;;;;;;;10.23;100.00;99429.38;5025119;28;20025;-68
2022/11/23 11:29:43;;;;;;;11.27;2.80;;;;;;;10.34;100.00;99424.06;5033015;28;20025;-67